Time;durP1;ratioP1;P1;durP2;ratioP2;P2;SDS_P1;SDS_P2;PMS_P1;PMS_P2;Temp;Humidity;BMP_temperature;BMP_pressure;BME280_temperature;BME280_humidity;BME280_pressure;Samples;Min_cycle;Max_cycle;Signal;HPM_P1;HPM_P2
2022/03/23 00:01:09;;;;;;;12.55;6.32;;;;;;;;;;5032502;28;20061;-65
2022/03/23 00:03:35;;;;;;;13.77;6.10;;;;;;;;;;5032485;28;20425;-66
2022/03/23 00:06:01;;;;;;;11.25;6.20;;;;;;;;;;5032631;28;20030;-67
2022/03/23 00:08:27;;;;;;;14.48;6.90;;;;;;;;;;5032815;28;20025;-66
2022/03/23 00:10:53;;;;;;;11.27;6.28;;;;;;;;;;5032713;28;20504;-66
2022/03/23 00:13:18;;;;;;;10.52;6.03;;;;;;;;;;5032578;28;20065;-66
2022/03/23 00:15:45;;;;;;;13.50;6.80;;;;;;;;;;5032471;28;20029;-66
2022/03/23 00:18:11;;;;;;;14.35;6.70;;;;;;;;;;5032891;28;20025;-65
2022/03/23 00:20:37;;;;;;;10.85;6.50;;;;;;;;;;5032560;28;20444;-66
2022/03/23 00:23:02;;;;;;;12.57;6.25;;;;;;;;;;5032566;28;20400;-66
2022/03/23 00:25:28;;;;;;;10.10;5.75;;;;;;;;;;5032420;28;20021;-65
2022/03/23 00:27:53;;;;;;;11.52;6.18;;;;;;;;;;5032689;28;20049;-66
2022/03/23 00:30:18;;;;;;;12.98;6.30;;;;;;;;;;5032551;28;20540;-66
2022/03/23 00:32:44;;;;;;;9.80;5.97;;;;;;;;;;5031773;28;20468;-65
2022/03/23 00:35:09;;;;;;;10.50;5.95;;;;;;;;;;5032183;28;20497;-65
2022/03/23 00:37:36;;;;;;;13.07;6.10;;;;;;;;;;5032355;28;20547;-66
2022/03/23 00:40:02;;;;;;;11.18;6.30;;;;;;;;;;5030987;28;20029;-66
2022/03/23 00:42:28;;;;;;;12.60;6.25;;;;;;;;;;5032207;28;20104;-65
2022/03/23 00:44:53;;;;;;;12.45;6.50;;;;;;;;;;5031850;28;20069;-65
2022/03/23 00:47:19;;;;;;;12.25;6.18;;;;;;;;;;5031927;28;20060;-66
2022/03/23 00:49:45;;;;;;;11.30;5.85;;;;;;;;;;5032213;28;20059;-65
2022/03/23 00:52:11;;;;;;;10.98;6.30;;;;;;;;;;5031903;28;20217;-66
2022/03/23 00:54:37;;;;;;;10.98;6.07;;;;;;;;;;5032160;28;20033;-65
2022/03/23 00:57:04;;;;;;;11.30;6.10;;;;;;;;;;5031809;28;20021;-65
2022/03/23 00:59:29;;;;;;;9.52;5.95;;;;;;;;;;5031920;28;20029;-66
2022/03/23 01:01:55;;;;;;;11.00;6.40;;;;;;;;;;5031653;28;20040;-66
2022/03/23 01:04:20;;;;;;;10.90;6.10;;;;;;;;;;5031608;28;20099;-65
2022/03/23 01:06:47;;;;;;;10.10;5.85;;;;;;;;;;5031775;28;20064;-65
2022/03/23 01:09:13;;;;;;;12.60;6.28;;;;;;;;;;5031934;28;20052;-65
2022/03/23 01:11:39;;;;;;;12.82;6.68;;;;;;;;;;5031614;28;20061;-65
2022/03/23 01:14:05;;;;;;;14.07;6.32;;;;;;;;;;5031438;28;20025;-65
2022/03/23 01:16:31;;;;;;;13.15;6.10;;;;;;;;;;5031531;28;20447;-65
2022/03/23 01:18:57;;;;;;;12.27;6.13;;;;;;;;;;5031519;28;20457;-63
2022/03/23 01:21:23;;;;;;;12.35;6.45;;;;;;;;;;5029946;28;20087;-65
2022/03/23 01:23:48;;;;;;;11.15;6.50;;;;;;;;;;5031468;28;20037;-65
2022/03/23 01:26:14;;;;;;;10.88;6.38;;;;;;;;;;5031825;28;20033;-66
2022/03/23 01:28:39;;;;;;;15.15;6.88;;;;;;;;;;5031490;28;20029;-66
2022/03/23 01:31:05;;;;;;;10.27;6.45;;;;;;;;;;5031083;28;20029;-66
2022/03/23 01:33:31;;;;;;;13.80;6.60;;;;;;;;;;5030930;28;20038;-65
2022/03/23 01:35:57;;;;;;;12.50;6.32;;;;;;;;;;5031332;28;20053;-65
2022/03/23 01:38:22;;;;;;;13.50;6.60;;;;;;;;;;5031194;28;20060;-65
2022/03/23 01:40:48;;;;;;;12.10;6.20;;;;;;;;;;5031203;28;20040;-66
2022/03/23 01:43:14;;;;;;;12.85;6.97;;;;;;;;;;5030381;28;20053;-66
2022/03/23 01:45:39;;;;;;;12.25;6.53;;;;;;;;;;5031118;28;20018;-66
2022/03/23 01:48:04;;;;;;;11.45;6.50;;;;;;;;;;5030598;28;20040;-66
2022/03/23 01:50:30;;;;;;;13.02;6.65;;;;;;;;;;5031251;28;20067;-67
2022/03/23 01:52:55;;;;;;;12.57;6.65;;;;;;;;;;5030818;28;20040;-65
2022/03/23 01:55:21;;;;;;;13.23;7.15;;;;;;;;;;5030898;28;20022;-65
2022/03/23 01:57:51;;;;;;;13.52;7.50;;;;;;;;;;5030618;28;20092;-66
2022/03/23 02:00:17;;;;;;;12.63;6.95;;;;;;;;;;5031018;28;20022;-65
2022/03/23 02:02:43;;;;;;;13.98;7.25;;;;;;;;;;5030577;28;20099;-66
2022/03/23 02:05:09;;;;;;;14.20;7.03;;;;;;;;;;5030419;28;20049;-65
2022/03/23 02:07:35;;;;;;;12.35;6.85;;;;;;;;;;5030891;28;20533;-66
2022/03/23 02:10:00;;;;;;;12.40;7.28;;;;;;;;;;5030706;28;20036;-66
2022/03/23 02:12:30;;;;;;;12.90;7.00;;;;;;;;;;5030592;28;20102;-66
2022/03/23 02:14:58;;;;;;;14.18;7.07;;;;;;;;;;5030440;28;20025;-65
2022/03/23 02:17:24;;;;;;;13.32;6.97;;;;;;;;;;5030575;28;20075;-65
2022/03/23 02:19:49;;;;;;;14.73;7.63;;;;;;;;;;5030719;28;20037;-67
2022/03/23 02:22:14;;;;;;;13.20;6.97;;;;;;;;;;5030302;28;20105;-69
2022/03/23 02:24:40;;;;;;;10.52;6.25;;;;;;;;;;5030362;28;20037;-65
2022/03/23 02:27:07;;;;;;;13.85;7.10;;;;;;;;;;5030450;28;20021;-66
2022/03/23 02:29:34;;;;;;;15.25;7.47;;;;;;;;;;5030506;28;20025;-65
2022/03/23 02:32:01;;;;;;;14.70;7.30;;;;;;;;;;5030134;28;20040;-66
2022/03/23 02:34:27;;;;;;;12.43;7.00;;;;;;;;;;5030444;28;20113;-66
2022/03/23 02:36:53;;;;;;;10.85;7.20;;;;;;;;;;5030354;28;20075;-66
2022/03/23 02:39:18;;;;;;;11.32;6.93;;;;;;;;;;5030232;28;20018;-65
2022/03/23 02:41:44;;;;;;;13.23;7.05;;;;;;;;;;5030328;28;20496;-66
2022/03/23 02:44:14;;;;;;;12.02;7.30;;;;;;;;;;5030160;28;20459;-69
2022/03/23 02:46:40;;;;;;;14.17;7.40;;;;;;;;;;5030445;28;20021;-65
2022/03/23 02:49:06;;;;;;;12.38;7.10;;;;;;;;;;5030088;28;20253;-66
2022/03/23 02:51:31;;;;;;;12.75;6.95;;;;;;;;;;5030482;28;20053;-66
2022/03/23 03:02:40;;;;;;;16.27;7.13;;;;;;;;;;5034151;28;20109;-67
2022/03/23 03:05:10;;;;;;;14.95;7.80;;;;;;;;;;5034070;28;20080;-65
2022/03/23 03:10:22;;;;;;;14.80;7.18;;;;;;;;;;5034409;28;20132;-65
2022/03/23 03:12:49;;;;;;;17.63;7.90;;;;;;;;;;5033787;28;20032;-66
2022/03/23 03:15:16;;;;;;;12.70;7.40;;;;;;;;;;5033627;28;20432;-65
2022/03/23 03:17:42;;;;;;;13.48;7.68;;;;;;;;;;5033787;28;20688;-65
2022/03/23 03:20:08;;;;;;;14.23;7.38;;;;;;;;;;5034052;28;20578;-66
2022/03/23 03:22:36;;;;;;;12.02;7.00;;;;;;;;;;5033603;28;20022;-66
2022/03/23 03:25:02;;;;;;;14.95;7.10;;;;;;;;;;5033532;28;20457;-66
2022/03/23 03:27:30;;;;;;;12.48;7.38;;;;;;;;;;5033592;28;20108;-65
2022/03/23 03:29:56;;;;;;;14.30;7.60;;;;;;;;;;5033554;28;20108;-65
2022/03/23 03:32:21;;;;;;;12.27;7.15;;;;;;;;;;5033588;28;20428;-65
2022/03/23 03:34:46;;;;;;;15.20;7.50;;;;;;;;;;5033265;28;20452;-65
2022/03/23 03:37:12;;;;;;;15.18;7.57;;;;;;;;;;5033773;28;20014;-66
2022/03/23 03:39:37;;;;;;;16.48;7.40;;;;;;;;;;5033354;28;20013;-66
2022/03/23 03:42:04;;;;;;;16.63;7.28;;;;;;;;;;5033597;28;20029;-65
2022/03/23 03:44:29;;;;;;;12.93;7.47;;;;;;;;;;5033121;28;20014;-65
2022/03/23 03:46:54;;;;;;;14.65;7.25;;;;;;;;;;5033160;28;20017;-65
2022/03/23 03:49:20;;;;;;;14.02;7.50;;;;;;;;;;5033101;28;20018;-65
2022/03/23 03:51:45;;;;;;;11.57;7.13;;;;;;;;;;5033522;28;20021;-66
2022/03/23 03:54:11;;;;;;;13.55;6.78;;;;;;;;;;5032890;28;20389;-65
2022/03/23 03:56:36;;;;;;;12.32;7.03;;;;;;;;;;5033185;28;20034;-65
2022/03/23 03:59:02;;;;;;;15.68;7.03;;;;;;;;;;5032992;28;20031;-66
2022/03/23 04:01:28;;;;;;;12.25;7.05;;;;;;;;;;5033397;28;20030;-65
2022/03/23 04:03:53;;;;;;;13.50;6.95;;;;;;;;;;5032527;28;20072;-67
2022/03/23 04:06:20;;;;;;;13.70;7.50;;;;;;;;;;5032267;28;20056;-65
2022/03/23 04:08:46;;;;;;;13.30;6.78;;;;;;;;;;5032623;28;20017;-65
2022/03/23 04:11:11;;;;;;;13.02;7.38;;;;;;;;;;5033385;28;20457;-66
2022/03/23 04:13:37;;;;;;;14.77;7.15;;;;;;;;;;5032722;28;20613;-66
2022/03/23 04:16:02;;;;;;;13.55;6.97;;;;;;;;;;5032703;28;20072;-65
2022/03/23 04:18:28;;;;;;;12.98;7.40;;;;;;;;;;5032493;28;20112;-65
2022/03/23 04:20:53;;;;;;;12.80;7.63;;;;;;;;;;5032701;28;20075;-65
2022/03/23 04:23:19;;;;;;;12.40;7.13;;;;;;;;;;5032246;28;20053;-65
2022/03/23 04:25:44;;;;;;;14.93;7.47;;;;;;;;;;5032374;28;20029;-65
2022/03/23 04:28:11;;;;;;;16.15;7.43;;;;;;;;;;5032550;28;20054;-65
2022/03/23 04:30:37;;;;;;;12.73;7.40;;;;;;;;;;5032373;28;20033;-65
2022/03/23 04:33:03;;;;;;;14.93;7.18;;;;;;;;;;5032667;28;20037;-66
2022/03/23 04:35:29;;;;;;;19.63;7.82;;;;;;;;;;5032405;28;20404;-65
2022/03/23 04:37:55;;;;;;;14.98;7.82;;;;;;;;;;5032260;28;20060;-65
2022/03/23 04:40:22;;;;;;;16.80;7.28;;;;;;;;;;5031975;28;20163;-66
2022/03/23 04:42:48;;;;;;;15.32;6.75;;;;;;;;;;5032270;28;20021;-72
2022/03/23 04:45:14;;;;;;;14.07;7.60;;;;;;;;;;5031697;28;20032;-65
2022/03/23 04:47:39;;;;;;;13.95;7.60;;;;;;;;;;5031913;28;20029;-65
2022/03/23 04:50:11;;;;;;;15.65;7.30;;;;;;;;;;5031847;28;20029;-65
2022/03/23 04:52:38;;;;;;;13.77;7.53;;;;;;;;;;5032093;28;20465;-65
2022/03/23 04:55:05;;;;;;;15.00;7.97;;;;;;;;;;5031557;28;20032;-65
2022/03/23 04:57:31;;;;;;;15.82;8.00;;;;;;;;;;5031840;28;20030;-66
2022/03/23 04:59:58;;;;;;;14.35;7.95;;;;;;;;;;5031698;28;20025;-65
2022/03/23 05:02:25;;;;;;;17.33;8.73;;;;;;;;;;5031812;28;20080;-65
2022/03/23 05:04:51;;;;;;;12.85;7.78;;;;;;;;;;5031426;28;20045;-65
2022/03/23 05:07:16;;;;;;;13.70;7.35;;;;;;;;;;5031893;28;20033;-65
2022/03/23 05:09:42;;;;;;;13.93;7.80;;;;;;;;;;5031543;28;20061;-65
2022/03/23 05:12:08;;;;;;;17.77;8.20;;;;;;;;;;5031764;28;20064;-65
2022/03/23 05:14:34;;;;;;;13.57;7.72;;;;;;;;;;5031230;28;20103;-66
2022/03/23 05:17:00;;;;;;;17.02;7.68;;;;;;;;;;5031395;28;20053;-66
2022/03/23 05:19:25;;;;;;;14.35;7.43;;;;;;;;;;5030391;28;20460;-65
2022/03/23 05:21:51;;;;;;;12.10;7.40;;;;;;;;;;5031498;28;20036;-65
2022/03/23 05:24:16;;;;;;;16.70;8.05;;;;;;;;;;5031641;28;20121;-66
2022/03/23 05:26:42;;;;;;;14.40;8.13;;;;;;;;;;5031423;28;20038;-66
2022/03/23 05:29:07;;;;;;;14.02;8.13;;;;;;;;;;5031195;28;20112;-66
2022/03/23 05:31:33;;;;;;;13.43;7.93;;;;;;;;;;5031478;28;20298;-66
2022/03/23 05:33:58;;;;;;;19.50;7.72;;;;;;;;;;5030891;28;20512;-65
2022/03/23 05:36:24;;;;;;;11.48;7.28;;;;;;;;;;5031130;28;20264;-65
2022/03/23 05:38:49;;;;;;;12.57;7.68;;;;;;;;;;5031324;28;20111;-65
2022/03/23 05:41:15;;;;;;;15.20;7.38;;;;;;;;;;5031257;28;20105;-65
2022/03/23 05:43:40;;;;;;;15.32;8.38;;;;;;;;;;5031266;28;20041;-66
2022/03/23 05:46:05;;;;;;;17.25;8.43;;;;;;;;;;5030688;28;20048;-69
2022/03/23 05:48:31;;;;;;;14.25;8.18;;;;;;;;;;5031006;28;20030;-65
2022/03/23 05:50:56;;;;;;;13.38;7.68;;;;;;;;;;5030754;28;20033;-69
2022/03/23 05:53:22;;;;;;;15.68;8.80;;;;;;;;;;5030955;28;20120;-66
2022/03/23 05:55:48;;;;;;;18.42;8.38;;;;;;;;;;5030589;28;20029;-66
2022/03/23 05:58:14;;;;;;;15.98;8.40;;;;;;;;;;5030954;28;20164;-66
2022/03/23 06:00:39;;;;;;;15.75;8.05;;;;;;;;;;5030845;28;20029;-72
2022/03/23 06:03:05;;;;;;;16.23;8.45;;;;;;;;;;5030865;28;20032;-69
2022/03/23 06:05:30;;;;;;;16.38;8.25;;;;;;;;;;5030110;28;20084;-66
2022/03/23 06:07:56;;;;;;;15.63;7.80;;;;;;;;;;5030812;28;20034;-67
2022/03/23 06:10:22;;;;;;;14.60;8.07;;;;;;;;;;5030532;28;20032;-68
2022/03/23 06:12:47;;;;;;;16.60;8.05;;;;;;;;;;5030761;28;20037;-66
2022/03/23 06:15:13;;;;;;;29.50;9.13;;;;;;;;;;5030405;28;20026;-66
2022/03/23 06:17:39;;;;;;;14.43;7.55;;;;;;;;;;5030655;28;20112;-65
2022/03/23 06:20:06;;;;;;;15.48;7.95;;;;;;;;;;5030367;28;20113;-67
2022/03/23 06:22:31;;;;;;;14.93;7.68;;;;;;;;;;5030566;28;20037;-66
2022/03/23 06:24:57;;;;;;;16.80;8.13;;;;;;;;;;5030363;28;20029;-65
2022/03/23 06:27:22;;;;;;;16.85;7.72;;;;;;;;;;5030450;28;20033;-65
2022/03/23 06:29:48;;;;;;;16.92;8.35;;;;;;;;;;5030062;28;20444;-66
2022/03/23 06:32:14;;;;;;;13.77;7.50;;;;;;;;;;5030339;28;20029;-66
2022/03/23 06:34:40;;;;;;;17.65;8.27;;;;;;;;;;5030316;28;20036;-66
2022/03/23 06:37:05;;;;;;;15.10;7.82;;;;;;;;;;5030242;28;20045;-65
2022/03/23 06:39:32;;;;;;;18.67;8.05;;;;;;;;;;5030204;28;20057;-66
2022/03/23 06:41:58;;;;;;;18.13;8.27;;;;;;;;;;5030506;28;20148;-65
2022/03/23 06:44:24;;;;;;;15.38;8.02;;;;;;;;;;5030323;28;20072;-66
2022/03/23 06:46:50;;;;;;;17.38;8.30;;;;;;;;;;5029843;28;20025;-71
2022/03/23 06:49:16;;;;;;;17.08;8.73;;;;;;;;;;5030406;28;20042;-66
2022/03/23 06:51:42;;;;;;;14.95;8.27;;;;;;;;;;5030127;28;20104;-66
2022/03/23 06:54:07;;;;;;;15.88;8.50;;;;;;;;;;5030435;28;20021;-65
2022/03/23 06:56:33;;;;;;;18.70;8.55;;;;;;;;;;5029950;28;20056;-65
2022/03/23 06:58:58;;;;;;;14.50;8.52;;;;;;;;;;5030111;28;20021;-65
2022/03/23 07:01:24;;;;;;;15.95;8.30;;;;;;;;;;5030124;28;20030;-66
2022/03/23 07:03:49;;;;;;;14.43;8.38;;;;;;;;;;5029889;28;20076;-71
2022/03/23 07:06:16;;;;;;;14.52;8.88;;;;;;;;;;5029787;28;20078;-66
2022/03/23 07:11:27;;;;;;;15.30;8.77;;;;;;;;;;5030016;28;20539;-65
2022/03/23 07:13:53;;;;;;;16.40;8.35;;;;;;;;;;5029946;28;20469;-65
2022/03/23 07:16:18;;;;;;;20.60;8.85;;;;;;;;;;5029452;28;20036;-66
2022/03/23 07:18:44;;;;;;;18.77;8.40;;;;;;;;;;5029824;28;20018;-68
2022/03/23 07:21:10;;;;;;;19.70;8.48;;;;;;;;;;5029677;28;20037;-66
2022/03/23 07:23:35;;;;;;;26.70;9.93;;;;;;;;;;5029965;28;20030;-66
2022/03/23 07:26:02;;;;;;;19.38;9.60;;;;;;;;;;5029580;28;20040;-68
2022/03/23 07:28:28;;;;;;;20.90;8.85;;;;;;;;;;5030011;28;20056;-67
2022/03/23 07:30:54;;;;;;;19.23;9.25;;;;;;;;;;5029358;28;20465;-70
2022/03/23 07:33:19;;;;;;;16.98;9.30;;;;;;;;;;5029534;28;20033;-66
2022/03/23 07:35:44;;;;;;;20.48;9.40;;;;;;;;;;5029750;28;20064;-67
2022/03/23 07:38:10;;;;;;;15.30;8.55;;;;;;;;;;5029793;28;20530;-66
2022/03/23 07:40:36;;;;;;;17.92;9.05;;;;;;;;;;5029701;28;20025;-67
2022/03/23 07:43:01;;;;;;;19.30;9.65;;;;;;;;;;5032626;28;20029;-66
2022/03/23 07:45:27;;;;;;;20.67;8.95;;;;;;;;;;5033023;28;20397;-66
2022/03/23 07:47:55;;;;;;;17.20;9.23;;;;;;;;;;5033171;28;20040;-66
2022/03/23 07:50:21;;;;;;;17.23;9.05;;;;;;;;;;5033178;28;20025;-67
2022/03/23 07:52:46;;;;;;;16.08;8.52;;;;;;;;;;5033486;28;20068;-67
2022/03/23 07:55:12;;;;;;;16.77;9.68;;;;;;;;;;5033039;28;20095;-66
2022/03/23 07:57:37;;;;;;;20.20;9.80;;;;;;;;;;5032909;28;20039;-66
2022/03/23 08:00:04;;;;;;;19.33;9.75;;;;;;;;;;5033013;28;20021;-67
2022/03/23 08:02:29;;;;;;;18.58;9.50;;;;;;;;;;5032834;28;20034;-67
2022/03/23 08:04:55;;;;;;;21.30;9.88;;;;;;;;;;5032735;28;20052;-66
2022/03/23 08:07:20;;;;;;;17.85;9.68;;;;;;;;;;5032367;28;20107;-66
2022/03/23 08:09:46;;;;;;;18.90;10.00;;;;;;;;;;5032845;28;20021;-66
2022/03/23 08:12:12;;;;;;;15.18;9.05;;;;;;;;;;5032783;28;20033;-66
2022/03/23 08:14:37;;;;;;;14.77;9.48;;;;;;;;;;5032696;28;20112;-67
2022/03/23 08:17:03;;;;;;;20.17;9.43;;;;;;;;;;5032329;28;20116;-66
2022/03/23 08:19:29;;;;;;;19.77;9.35;;;;;;;;;;5032794;28;20504;-67
2022/03/23 08:21:55;;;;;;;20.30;9.70;;;;;;;;;;5032313;28;20029;-66
2022/03/23 08:24:20;;;;;;;20.55;10.32;;;;;;;;;;5032622;28;20385;-67
2022/03/23 08:26:47;;;;;;;17.05;9.60;;;;;;;;;;5032328;28;20025;-67
2022/03/23 08:29:13;;;;;;;20.35;10.02;;;;;;;;;;5032575;28;20558;-66
2022/03/23 08:31:38;;;;;;;18.48;10.07;;;;;;;;;;5032386;28;20033;-66
2022/03/23 08:34:04;;;;;;;16.90;10.13;;;;;;;;;;5032533;28;20120;-66
2022/03/23 08:36:31;;;;;;;20.17;9.90;;;;;;;;;;5032149;28;20041;-66
2022/03/23 08:38:57;;;;;;;17.60;9.98;;;;;;;;;;5032239;28;20449;-66
2022/03/23 08:41:22;;;;;;;19.85;9.98;;;;;;;;;;5032180;28;20104;-66
2022/03/23 08:43:48;;;;;;;20.10;10.13;;;;;;;;;;5032361;28;20041;-66
2022/03/23 08:46:13;;;;;;;17.83;10.30;;;;;;;;;;5031985;28;20029;-66
2022/03/23 08:48:39;;;;;;;21.05;9.90;;;;;;;;;;5032045;28;20031;-66
2022/03/23 08:51:05;;;;;;;17.45;9.73;;;;;;;;;;5032082;28;20072;-66
2022/03/23 08:53:31;;;;;;;16.83;9.90;;;;;;;;;;5032326;28;20128;-66
2022/03/23 08:55:57;;;;;;;14.45;9.25;;;;;;;;;;5031825;28;20029;-70
2022/03/23 08:58:23;;;;;;;18.05;9.25;;;;;;;;;;5031684;28;20037;-66
2022/03/23 09:00:49;;;;;;;17.55;9.70;;;;;;;;;;5032256;28;20030;-66
2022/03/23 09:03:14;;;;;;;18.10;10.10;;;;;;;;;;5031673;28;20504;-66
2022/03/23 09:05:40;;;;;;;17.45;9.90;;;;;;;;;;5031747;28;20048;-66
2022/03/23 09:08:05;;;;;;;17.85;9.65;;;;;;;;;;5031365;28;20029;-66
2022/03/23 09:10:31;;;;;;;19.02;9.82;;;;;;;;;;5031852;28;20025;-67
2022/03/23 09:12:56;;;;;;;18.73;10.38;;;;;;;;;;5031230;28;20492;-66
2022/03/23 09:15:23;;;;;;;23.00;10.63;;;;;;;;;;5031401;28;20076;-67
2022/03/23 09:17:48;;;;;;;17.15;10.63;;;;;;;;;;5031285;28;20420;-66
2022/03/23 09:20:14;;;;;;;16.95;10.65;;;;;;;;;;5031465;28;20271;-66
2022/03/23 09:22:41;;;;;;;21.63;11.10;;;;;;;;;;5031257;28;20060;-66
2022/03/23 09:25:11;;;;;;;16.35;11.25;;;;;;;;;;5031410;28;20100;-66
2022/03/23 09:27:39;;;;;;;17.83;11.45;;;;;;;;;;5030953;28;20543;-66
2022/03/23 09:30:06;;;;;;;17.52;11.35;;;;;;;;;;5031226;28;20026;-66
2022/03/23 09:32:32;;;;;;;19.60;11.52;;;;;;;;;;5030942;28;20025;-65
2022/03/23 09:34:58;;;;;;;16.13;10.30;;;;;;;;;;5031377;28;20388;-66
2022/03/23 09:40:08;;;;;;;19.23;10.85;;;;;;;;;;5031562;28;20095;-66
2022/03/23 09:42:34;;;;;;;20.02;11.07;;;;;;;;;;5030953;28;20397;-66
2022/03/23 09:45:00;;;;;;;20.83;10.52;;;;;;;;;;5031191;28;20026;-68
2022/03/23 09:47:26;;;;;;;20.52;11.18;;;;;;;;;;5030600;28;20508;-66
2022/03/23 09:49:52;;;;;;;16.20;10.93;;;;;;;;;;5030930;28;20029;-66
2022/03/23 09:52:17;;;;;;;23.70;11.10;;;;;;;;;;5030857;28;20078;-66
2022/03/23 09:54:45;;;;;;;19.13;10.98;;;;;;;;;;5030997;28;20415;-66
2022/03/23 09:57:11;;;;;;;18.27;10.93;;;;;;;;;;5030652;28;20180;-65
2022/03/23 09:59:37;;;;;;;18.30;11.20;;;;;;;;;;5031041;28;20079;-66
2022/03/23 10:02:02;;;;;;;16.98;10.85;;;;;;;;;;5030515;28;20026;-66
2022/03/23 10:05:06;;;;;;;18.50;10.88;;;;;;;;;;5030028;28;20045;-66
2022/03/23 10:07:55;;;;;;;19.13;11.40;;;;;;;;;;5007300;28;20489;-66
2022/03/23 10:10:30;;;;;;;16.45;11.35;;;;;;;;;;5030867;28;20040;-66
2022/03/23 10:13:33;;;;;;;18.40;10.98;;;;;;;;;;5030563;28;20033;-66
2022/03/23 10:16:35;;;;;;;22.23;11.38;;;;;;;;;;5030705;28;20476;-69
2022/03/23 10:19:01;;;;;;;17.23;10.60;;;;;;;;;;5030293;28;20033;-66
2022/03/23 10:21:34;;;;;;;17.73;10.73;;;;;;;;;;5030543;28;20036;-66
2022/03/23 10:24:00;;;;;;;20.13;11.50;;;;;;;;;;5030233;28;20039;-66
2022/03/23 10:26:27;;;;;;;19.38;11.38;;;;;;;;;;5030650;28;20083;-66
2022/03/23 10:28:53;;;;;;;17.83;11.10;;;;;;;;;;5030156;28;20026;-66
2022/03/23 10:31:25;;;;;;;20.88;11.13;;;;;;;;;;5030670;28;20025;-66
2022/03/23 10:34:10;;;;;;;18.52;11.35;;;;;;;;;;5030393;28;20354;-66
2022/03/23 10:36:38;;;;;;;21.10;10.98;;;;;;;;;;5030847;28;20366;-66
2022/03/23 10:39:05;;;;;;;16.85;10.68;;;;;;;;;;5030311;28;20465;-66
2022/03/23 10:41:31;;;;;;;18.08;11.40;;;;;;;;;;5030383;28;20021;-66
2022/03/23 10:43:58;;;;;;;19.90;11.48;;;;;;;;;;5030231;28;20032;-66
2022/03/23 10:46:24;;;;;;;19.38;11.10;;;;;;;;;;5030826;28;20048;-66
2022/03/23 10:49:01;;;;;;;20.85;11.95;;;;;;;;;;5029789;28;20021;-69
2022/03/23 10:51:27;;;;;;;19.08;11.52;;;;;;;;;;5030626;28;20026;-66
2022/03/23 10:53:54;;;;;;;25.05;11.00;;;;;;;;;;5030016;28;20060;-66
2022/03/23 10:56:30;;;;;;;19.23;11.07;;;;;;;;;;5030108;28;20485;-66
2022/03/23 10:59:25;;;;;;;21.02;10.98;;;;;;;;;;5029808;28;20024;-65
2022/03/23 11:01:58;;;;;;;20.42;11.25;;;;;;;;;;5030092;28;20056;-65
2022/03/23 11:04:29;;;;;;;18.52;10.77;;;;;;;;;;5029783;28;20051;-65
2022/03/23 11:06:59;;;;;;;18.52;11.13;;;;;;;;;;5030212;28;20029;-66
2022/03/23 11:18:13;;;;;;;19.08;10.82;;;;;;;;;;5032272;28;20044;-66
2022/03/23 11:20:50;;;;;;;18.23;10.95;;;;;;;;;;5034106;28;20029;-66
2022/03/23 11:23:30;;;;;;;18.13;10.52;;;;;;;;;;5033802;28;20096;-66
2022/03/23 11:25:57;;;;;;;21.58;11.05;;;;;;;;;;5033971;28;20026;-66
2022/03/23 11:28:23;;;;;;;19.00;10.48;;;;;;;;;;5033327;28;20029;-66
2022/03/23 11:30:50;;;;;;;17.98;10.90;;;;;;;;;;5033630;28;20079;-66
2022/03/23 11:33:18;;;;;;;17.15;10.32;;;;;;;;;;5033251;28;20037;-66
2022/03/23 11:35:48;;;;;;;19.48;11.05;;;;;;;;;;5033726;28;20033;-66
2022/03/23 11:38:16;;;;;;;19.03;11.27;;;;;;;;;;5033214;28;20028;-66
2022/03/23 11:40:43;;;;;;;21.83;11.48;;;;;;;;;;5033597;28;20631;-66
2022/03/23 11:43:10;;;;;;;20.58;10.90;;;;;;;;;;5033288;28;20032;-65
2022/03/23 11:45:38;;;;;;;19.27;10.82;;;;;;;;;;5033458;28;20110;-65
2022/03/23 11:48:21;;;;;;;21.10;11.93;;;;;;;;;;5032789;28;20061;-66
2022/03/23 11:51:15;;;;;;;17.10;10.75;;;;;;;;;;5033282;28;20026;-67
2022/03/23 11:53:58;;;;;;;20.80;11.13;;;;;;;;;;5033043;28;20030;-66
2022/03/23 11:56:38;;;;;;;22.50;10.63;;;;;;;;;;5033315;28;20555;-66
2022/03/23 11:59:22;;;;;;;18.37;10.73;;;;;;;;;;5032962;28;20512;-67
2022/03/23 12:01:50;;;;;;;22.13;10.65;;;;;;;;;;5032906;28;20275;-66
2022/03/23 12:04:21;;;;;;;19.08;11.40;;;;;;;;;;5033076;28;20054;-66
2022/03/23 12:07:15;;;;;;;16.40;10.43;;;;;;;;;;5033159;28;20030;-66
2022/03/23 12:09:44;;;;;;;20.27;10.77;;;;;;;;;;5032278;28;20059;-66
2022/03/23 12:12:32;;;;;;;19.08;11.15;;;;;;;;;;5032939;28;20049;-66
2022/03/23 12:15:19;;;;;;;17.38;11.02;;;;;;;;;;5032539;28;20029;-66
2022/03/23 12:17:54;;;;;;;18.98;11.05;;;;;;;;;;5032527;28;20036;-65
2022/03/23 12:20:37;;;;;;;17.13;10.68;;;;;;;;;;5032663;28;20029;-66
2022/03/23 12:23:14;;;;;;;19.23;10.35;;;;;;;;;;5032749;28;20439;-69
2022/03/23 12:26:00;;;;;;;22.58;11.20;;;;;;;;;;5032689;28;20037;-66
2022/03/23 12:28:40;;;;;;;21.65;10.98;;;;;;;;;;5031847;28;20029;-65
2022/03/23 12:31:10;;;;;;;20.30;11.63;;;;;;;;;;5032678;28;20113;-66
2022/03/23 12:33:56;;;;;;;25.07;11.37;;;;;;;;;;5030978;28;20030;-66
2022/03/23 12:36:56;;;;;;;19.70;10.75;;;;;;;;;;5032454;28;20334;-67
2022/03/23 12:39:22;;;;;;;18.13;11.18;;;;;;;;;;5031754;28;20492;-66
2022/03/23 12:41:47;;;;;;;18.33;10.90;;;;;;;;;;5032512;28;20083;-70
2022/03/23 12:44:13;;;;;;;19.42;10.77;;;;;;;;;;5032075;28;20030;-66
2022/03/23 12:46:45;;;;;;;15.60;9.82;;;;;;;;;;5032380;28;20453;-70
2022/03/23 13:00:25;;;;;;;18.20;9.48;;;;;;;;;;5032050;28;20031;-66
2022/03/23 13:03:07;;;;;;;19.42;10.95;;;;;;;;;;5031820;28;20508;-67
2022/03/23 13:05:33;;;;;;;20.70;10.23;;;;;;;;;;5031641;28;20500;-66
2022/03/23 13:08:00;;;;;;;15.70;10.00;;;;;;;;;;5031767;28;20488;-66
2022/03/23 13:10:25;;;;;;;16.50;9.80;;;;;;;;;;5031568;28;20029;-66
2022/03/23 13:13:08;;;;;;;15.07;8.82;;;;;;;;;;5031643;28;20030;-67
2022/03/23 13:15:35;;;;;;;15.43;9.25;;;;;;;;;;5031981;28;20080;-65
2022/03/23 13:18:00;;;;;;;15.82;8.95;;;;;;;;;;5031336;28;20024;-65
2022/03/23 13:20:28;;;;;;;18.77;10.00;;;;;;;;;;5031743;28;20021;-66
2022/03/23 13:22:54;;;;;;;17.63;9.30;;;;;;;;;;5032008;28;20018;-66
2022/03/23 13:25:20;;;;;;;12.60;8.20;;;;;;;;;;5031149;28;20025;-66
2022/03/23 13:27:47;;;;;;;16.48;9.23;;;;;;;;;;5031471;28;20030;-66
2022/03/23 13:30:15;;;;;;;13.00;8.30;;;;;;;;;;5031305;28;20109;-66
2022/03/23 13:32:48;;;;;;;16.17;9.90;;;;;;;;;;5031249;28;20113;-66
2022/03/23 13:35:20;;;;;;;14.20;9.50;;;;;;;;;;5031096;28;20054;-66
2022/03/23 13:37:59;;;;;;;15.30;9.27;;;;;;;;;;5031195;28;20030;-66
2022/03/23 13:43:19;;;;;;;17.70;9.50;;;;;;;;;;5030307;28;20037;-67
2022/03/23 13:43:21;;;;;;;17.83;9.73;;;;;;;;;;5031187;28;20056;-66
2022/03/23 13:45:48;;;;;;;17.25;9.63;;;;;;;;;;5030727;28;20126;-66
2022/03/23 13:48:14;;;;;;;17.92;9.35;;;;;;;;;;5030910;28;20228;-66
2022/03/23 13:50:44;;;;;;;16.50;10.30;;;;;;;;;;5031019;28;20190;-66
2022/03/23 13:53:13;;;;;;;19.25;10.05;;;;;;;;;;5031163;28;20044;-66
2022/03/23 13:55:40;;;;;;;18.55;9.80;;;;;;;;;;5030782;28;20025;-66
2022/03/23 13:58:06;;;;;;;15.07;9.45;;;;;;;;;;5030749;28;20026;-66
2022/03/23 14:00:32;;;;;;;20.17;10.00;;;;;;;;;;5030469;28;20032;-67
2022/03/23 14:02:58;;;;;;;14.13;9.27;;;;;;;;;;5030805;28;20029;-66
2022/03/23 14:05:28;;;;;;;15.90;10.40;;;;;;;;;;5030395;28;20114;-66
2022/03/23 14:07:57;;;;;;;21.00;10.02;;;;;;;;;;5030624;28;20120;-66
2022/03/23 14:10:38;;;;;;;15.60;9.88;;;;;;;;;;5030414;28;20036;-66
2022/03/23 14:13:11;;;;;;;15.60;9.63;;;;;;;;;;5030553;28;20114;-66
2022/03/23 14:15:54;;;;;;;18.40;9.75;;;;;;;;;;5030335;28;20032;-66
2022/03/23 14:18:21;;;;;;;16.67;9.68;;;;;;;;;;5030179;28;20040;-66
2022/03/23 14:20:52;;;;;;;15.98;9.35;;;;;;;;;;5030146;28;20021;-66
2022/03/23 14:23:19;;;;;;;;;;;;;;;;;;5030985;28;20174;-66
2022/03/23 14:25:45;;;;;;;14.48;9.23;;;;;;;;;;5030044;28;19913;-66
2022/03/23 14:28:19;;;;;;;15.85;9.63;;;;;;;;;;5030484;28;20507;-66
2022/03/23 14:30:49;;;;;;;16.50;9.48;;;;;;;;;;5030363;28;20083;-66
2022/03/23 14:33:22;;;;;;;13.90;9.30;;;;;;;;;;5030478;28;20117;-66
2022/03/23 14:35:49;;;;;;;14.90;9.13;;;;;;;;;;5030178;28;20535;-65
2022/03/23 14:38:19;;;;;;;13.55;8.60;;;;;;;;;;5030189;28;20109;-66
2022/03/23 14:41:00;;;;;;;15.38;8.98;;;;;;;;;;5030029;28;20029;-66
2022/03/23 14:43:39;;;;;;;13.38;8.23;;;;;;;;;;5030583;28;20025;-66
2022/03/23 14:46:23;;;;;;;14.95;8.70;;;;;;;;;;5030445;28;20388;-66
2022/03/23 14:49:11;;;;;;;13.75;9.15;;;;;;;;;;5030062;28;20022;-66
2022/03/23 14:51:46;;;;;;;14.45;8.68;;;;;;;;;;5032692;28;20029;-66
2022/03/23 14:54:14;;;;;;;17.75;9.65;;;;;;;;;;5034336;28;20029;-66
2022/03/23 14:56:43;;;;;;;15.70;9.82;;;;;;;;;;5034028;28;20052;-67
2022/03/23 14:59:09;;;;;;;16.15;9.98;;;;;;;;;;5034312;28;20365;-66
2022/03/23 15:01:36;;;;;;;15.27;9.55;;;;;;;;;;5034080;28;20489;-66
2022/03/23 15:04:02;;;;;;;16.40;9.48;;;;;;;;;;5033988;28;20045;-66
2022/03/23 15:14:41;;;;;;;13.35;9.65;;;;;;;;;;5034118;28;20473;-66
2022/03/23 15:17:06;;;;;;;17.67;9.25;;;;;;;;;;5033469;28;20092;-66